sensor_id;sensor_type;location;lat;lon;timestamp;temperature;humidity
36856;DHT22;22788;51.434;6.786;2022-08-01T00:01:49;21.30;89.60
36856;DHT22;22788;51.434;6.786;2022-08-01T00:04:15;21.30;89.40
36856;DHT22;22788;51.434;6.786;2022-08-01T00:06:41;21.30;89.40
36856;DHT22;22788;51.434;6.786;2022-08-01T00:09:07;21.30;89.30
36856;DHT22;22788;51.434;6.786;2022-08-01T00:11:34;21.30;89.50
36856;DHT22;22788;51.434;6.786;2022-08-01T00:14:01;21.30;90.00
36856;DHT22;22788;51.434;6.786;2022-08-01T00:16:27;21.30;90.00
36856;DHT22;22788;51.434;6.786;2022-08-01T00:18:53;21.30;89.80
36856;DHT22;22788;51.434;6.786;2022-08-01T00:21:19;21.20;89.80
36856;DHT22;22788;51.434;6.786;2022-08-01T00:23:45;21.30;89.70
36856;DHT22;22788;51.434;6.786;2022-08-01T00:26:11;21.20;89.70
36856;DHT22;22788;51.434;6.786;2022-08-01T00:28:39;21.20;90.10
36856;DHT22;22788;51.434;6.786;2022-08-01T00:31:05;21.20;90.10
36856;DHT22;22788;51.434;6.786;2022-08-01T00:33:31;21.20;90.10
36856;DHT22;22788;51.434;6.786;2022-08-01T00:35:57;21.20;90.10
36856;DHT22;22788;51.434;6.786;2022-08-01T00:38:24;21.20;90.10
36856;DHT22;22788;51.434;6.786;2022-08-01T00:40:50;21.20;90.10
36856;DHT22;22788;51.434;6.786;2022-08-01T00:43:16;21.20;90.00
36856;DHT22;22788;51.434;6.786;2022-08-01T00:45:44;21.20;90.10
36856;DHT22;22788;51.434;6.786;2022-08-01T00:48:10;21.20;90.00
36856;DHT22;22788;51.434;6.786;2022-08-01T00:50:36;21.20;90.00
36856;DHT22;22788;51.434;6.786;2022-08-01T00:53:03;21.20;90.10
36856;DHT22;22788;51.434;6.786;2022-08-01T00:55:31;21.20;90.10
36856;DHT22;22788;51.434;6.786;2022-08-01T00:57:58;21.20;90.20
36856;DHT22;22788;51.434;6.786;2022-08-01T01:00:25;21.10;90.10
36856;DHT22;22788;51.434;6.786;2022-08-01T01:02:52;21.20;90.10
36856;DHT22;22788;51.434;6.786;2022-08-01T01:05:18;21.20;90.00
36856;DHT22;22788;51.434;6.786;2022-08-01T01:07:50;21.10;89.90
36856;DHT22;22788;51.434;6.786;2022-08-01T01:10:22;21.20;89.90
36856;DHT22;22788;51.434;6.786;2022-08-01T01:12:53;21.20;89.80
36856;DHT22;22788;51.434;6.786;2022-08-01T01:15:23;21.10;89.80
36856;DHT22;22788;51.434;6.786;2022-08-01T01:17:56;21.10;90.10
36856;DHT22;22788;51.434;6.786;2022-08-01T01:23:32;21.10;90.10
36856;DHT22;22788;51.434;6.786;2022-08-01T01:26:21;21.10;90.00
36856;DHT22;22788;51.434;6.786;2022-08-01T01:29:00;21.10;90.00
36856;DHT22;22788;51.434;6.786;2022-08-01T01:31:27;21.10;89.80
36856;DHT22;22788;51.434;6.786;2022-08-01T01:33:55;21.10;90.00
36856;DHT22;22788;51.434;6.786;2022-08-01T01:36:22;21.10;90.00
36856;DHT22;22788;51.434;6.786;2022-08-01T01:38:51;21.10;90.10
36856;DHT22;22788;51.434;6.786;2022-08-01T01:41:18;21.00;90.40
36856;DHT22;22788;51.434;6.786;2022-08-01T01:43:45;21.10;90.20
36856;DHT22;22788;51.434;6.786;2022-08-01T01:46:17;21.00;90.10
36856;DHT22;22788;51.434;6.786;2022-08-01T01:48:45;21.00;90.30
36856;DHT22;22788;51.434;6.786;2022-08-01T01:51:13;21.00;90.20
36856;DHT22;22788;51.434;6.786;2022-08-01T01:53:40;21.00;90.20
36856;DHT22;22788;51.434;6.786;2022-08-01T01:56:09;21.00;90.10
36856;DHT22;22788;51.434;6.786;2022-08-01T01:58:36;21.00;90.20
36856;DHT22;22788;51.434;6.786;2022-08-01T02:01:04;21.00;90.30
36856;DHT22;22788;51.434;6.786;2022-08-01T02:03:32;21.10;90.00
36856;DHT22;22788;51.434;6.786;2022-08-01T02:06:01;21.10;90.10
36856;DHT22;22788;51.434;6.786;2022-08-01T02:08:29;21.10;90.20
36856;DHT22;22788;51.434;6.786;2022-08-01T02:10:57;21.00;90.00
36856;DHT22;22788;51.434;6.786;2022-08-01T02:13:24;21.00;90.00
36856;DHT22;22788;51.434;6.786;2022-08-01T02:15:50;21.00;90.00
36856;DHT22;22788;51.434;6.786;2022-08-01T02:18:17;21.00;89.80
36856;DHT22;22788;51.434;6.786;2022-08-01T02:20:45;21.00;89.70
36856;DHT22;22788;51.434;6.786;2022-08-01T02:23:12;21.10;90.00
36856;DHT22;22788;51.434;6.786;2022-08-01T02:25:41;21.10;89.80
36856;DHT22;22788;51.434;6.786;2022-08-01T02:28:12;21.10;89.70
36856;DHT22;22788;51.434;6.786;2022-08-01T02:30:42;21.10;89.60
36856;DHT22;22788;51.434;6.786;2022-08-01T02:33:12;21.10;89.60
36856;DHT22;22788;51.434;6.786;2022-08-01T02:35:42;21.10;89.80
36856;DHT22;22788;51.434;6.786;2022-08-01T02:38:11;21.10;89.70
36856;DHT22;22788;51.434;6.786;2022-08-01T02:40:41;21.00;90.00
36856;DHT22;22788;51.434;6.786;2022-08-01T02:43:10;21.10;90.00
36856;DHT22;22788;51.434;6.786;2022-08-01T02:45:43;21.00;90.00
36856;DHT22;22788;51.434;6.786;2022-08-01T02:48:13;21.00;90.10
36856;DHT22;22788;51.434;6.786;2022-08-01T02:50:42;20.90;90.20
36856;DHT22;22788;51.434;6.786;2022-08-01T02:53:12;20.90;90.10
36856;DHT22;22788;51.434;6.786;2022-08-01T02:55:40;21.00;90.10
36856;DHT22;22788;51.434;6.786;2022-08-01T02:58:07;21.00;90.20
36856;DHT22;22788;51.434;6.786;2022-08-01T03:00:34;21.00;90.00
36856;DHT22;22788;51.434;6.786;2022-08-01T03:03:01;21.00;90.20
36856;DHT22;22788;51.434;6.786;2022-08-01T03:05:30;21.00;90.00
36856;DHT22;22788;51.434;6.786;2022-08-01T03:07:59;21.00;90.10
36856;DHT22;22788;51.434;6.786;2022-08-01T03:10:29;21.00;89.90
36856;DHT22;22788;51.434;6.786;2022-08-01T03:12:57;21.00;90.00
36856;DHT22;22788;51.434;6.786;2022-08-01T03:15:26;21.00;90.10
36856;DHT22;22788;51.434;6.786;2022-08-01T03:17:54;21.00;90.20
36856;DHT22;22788;51.434;6.786;2022-08-01T03:20:21;20.90;90.10
36856;DHT22;22788;51.434;6.786;2022-08-01T03:22:50;21.00;90.10
36856;DHT22;22788;51.434;6.786;2022-08-01T03:25:18;21.00;90.10
36856;DHT22;22788;51.434;6.786;2022-08-01T03:27:54;21.00;90.10
36856;DHT22;22788;51.434;6.786;2022-08-01T03:30:21;21.00;90.10
36856;DHT22;22788;51.434;6.786;2022-08-01T03:32:48;21.00;90.10
36856;DHT22;22788;51.434;6.786;2022-08-01T03:35:14;21.00;90.00
36856;DHT22;22788;51.434;6.786;2022-08-01T03:37:42;20.90;90.00
36856;DHT22;22788;51.434;6.786;2022-08-01T03:40:14;21.00;90.00
36856;DHT22;22788;51.434;6.786;2022-08-01T03:42:47;20.90;90.20
36856;DHT22;22788;51.434;6.786;2022-08-01T03:45:19;20.90;90.10
36856;DHT22;22788;51.434;6.786;2022-08-01T03:47:49;20.90;90.10
36856;DHT22;22788;51.434;6.786;2022-08-01T03:50:20;20.90;90.00
36856;DHT22;22788;51.434;6.786;2022-08-01T03:52:47;20.90;90.00
36856;DHT22;22788;51.434;6.786;2022-08-01T03:55:15;20.90;90.00
36856;DHT22;22788;51.434;6.786;2022-08-01T03:57:42;20.90;89.90
36856;DHT22;22788;51.434;6.786;2022-08-01T04:00:11;21.00;89.90
36856;DHT22;22788;51.434;6.786;2022-08-01T04:02:38;20.90;89.80
36856;DHT22;22788;51.434;6.786;2022-08-01T04:05:05;20.90;90.00
36856;DHT22;22788;51.434;6.786;2022-08-01T04:07:33;21.00;90.00
36856;DHT22;22788;51.434;6.786;2022-08-01T04:09:59;20.90;90.00
36856;DHT22;22788;51.434;6.786;2022-08-01T04:12:25;20.90;89.90
36856;DHT22;22788;51.434;6.786;2022-08-01T04:14:51;20.90;89.80
36856;DHT22;22788;51.434;6.786;2022-08-01T04:17:19;21.30;90.00
36856;DHT22;22788;51.434;6.786;2022-08-01T04:19:46;20.90;89.80
36856;DHT22;22788;51.434;6.786;2022-08-01T04:22:14;20.90;90.00
36856;DHT22;22788;51.434;6.786;2022-08-01T04:24:41;20.90;90.10
36856;DHT22;22788;51.434;6.786;2022-08-01T04:27:11;20.90;90.10
36856;DHT22;22788;51.434;6.786;2022-08-01T04:29:39;20.90;90.00
36856;DHT22;22788;51.434;6.786;2022-08-01T04:32:08;20.90;90.00
36856;DHT22;22788;51.434;6.786;2022-08-01T04:34:39;20.90;90.20
36856;DHT22;22788;51.434;6.786;2022-08-01T04:37:09;20.90;90.10
36856;DHT22;22788;51.434;6.786;2022-08-01T04:39:37;20.90;90.00
36856;DHT22;22788;51.434;6.786;2022-08-01T04:42:05;20.90;90.00
36856;DHT22;22788;51.434;6.786;2022-08-01T04:44:32;20.90;90.00
36856;DHT22;22788;51.434;6.786;2022-08-01T04:46:59;20.90;90.20
36856;DHT22;22788;51.434;6.786;2022-08-01T04:49:25;20.90;90.20
36856;DHT22;22788;51.434;6.786;2022-08-01T04:51:54;20.80;90.10
36856;DHT22;22788;51.434;6.786;2022-08-01T04:54:21;20.90;90.40
36856;DHT22;22788;51.434;6.786;2022-08-01T04:56:47;20.80;90.30
36856;DHT22;22788;51.434;6.786;2022-08-01T04:59:13;20.80;90.50
36856;DHT22;22788;51.434;6.786;2022-08-01T05:01:39;20.80;90.20
36856;DHT22;22788;51.434;6.786;2022-08-01T05:04:05;20.90;90.20
36856;DHT22;22788;51.434;6.786;2022-08-01T05:06:31;20.90;90.30
36856;DHT22;22788;51.434;6.786;2022-08-01T05:08:59;20.90;90.30
36856;DHT22;22788;51.434;6.786;2022-08-01T05:11:25;20.90;90.20
36856;DHT22;22788;51.434;6.786;2022-08-01T05:13:51;20.90;90.20
36856;DHT22;22788;51.434;6.786;2022-08-01T05:16:17;20.80;90.10
36856;DHT22;22788;51.434;6.786;2022-08-01T05:18:43;20.80;90.20
36856;DHT22;22788;51.434;6.786;2022-08-01T05:21:09;20.90;90.10
36856;DHT22;22788;51.434;6.786;2022-08-01T05:23:35;20.90;90.10
36856;DHT22;22788;51.434;6.786;2022-08-01T05:26:02;20.90;90.60
36856;DHT22;22788;51.434;6.786;2022-08-01T05:28:28;20.90;90.30
36856;DHT22;22788;51.434;6.786;2022-08-01T05:30:54;20.80;90.20
36856;DHT22;22788;51.434;6.786;2022-08-01T05:33:21;20.80;90.20
36856;DHT22;22788;51.434;6.786;2022-08-01T05:35:47;20.80;90.20
36856;DHT22;22788;51.434;6.786;2022-08-01T05:38:13;20.80;90.30
36856;DHT22;22788;51.434;6.786;2022-08-01T05:40:39;20.80;90.30
36856;DHT22;22788;51.434;6.786;2022-08-01T05:43:06;20.80;90.40
36856;DHT22;22788;51.434;6.786;2022-08-01T05:45:32;20.80;90.40
36856;DHT22;22788;51.434;6.786;2022-08-01T05:47:58;20.70;90.40
36856;DHT22;22788;51.434;6.786;2022-08-01T05:50:24;20.80;90.40
36856;DHT22;22788;51.434;6.786;2022-08-01T05:52:50;20.80;90.40
36856;DHT22;22788;51.434;6.786;2022-08-01T05:55:16;20.70;90.40
36856;DHT22;22788;51.434;6.786;2022-08-01T05:57:42;20.70;90.50
36856;DHT22;22788;51.434;6.786;2022-08-01T06:00:11;20.80;90.40
36856;DHT22;22788;51.434;6.786;2022-08-01T06:02:40;20.80;90.40
36856;DHT22;22788;51.434;6.786;2022-08-01T06:05:07;20.80;90.30
36856;DHT22;22788;51.434;6.786;2022-08-01T06:07:33;20.80;90.30
36856;DHT22;22788;51.434;6.786;2022-08-01T06:09:59;20.80;90.20
36856;DHT22;22788;51.434;6.786;2022-08-01T06:12:25;20.80;90.20
36856;DHT22;22788;51.434;6.786;2022-08-01T06:14:51;20.80;90.10
36856;DHT22;22788;51.434;6.786;2022-08-01T06:17:18;21.00;90.10
36856;DHT22;22788;51.434;6.786;2022-08-01T09:43:47;22.20;83.40
36856;DHT22;22788;51.434;6.786;2022-08-01T09:46:13;22.20;83.60
36856;DHT22;22788;51.434;6.786;2022-08-01T09:48:55;22.30;83.60
36856;DHT22;22788;51.434;6.786;2022-08-01T09:51:28;22.30;83.20
36856;DHT22;22788;51.434;6.786;2022-08-01T09:53:55;22.40;82.90
36856;DHT22;22788;51.434;6.786;2022-08-01T09:56:22;22.40;82.80
36856;DHT22;22788;51.434;6.786;2022-08-01T09:58:50;22.30;82.50
36856;DHT22;22788;51.434;6.786;2022-08-01T10:01:16;22.40;82.60
36856;DHT22;22788;51.434;6.786;2022-08-01T10:03:43;22.40;82.50
36856;DHT22;22788;51.434;6.786;2022-08-01T10:06:19;22.50;82.50
36856;DHT22;22788;51.434;6.786;2022-08-01T10:11:12;22.50;81.20
36856;DHT22;22788;51.434;6.786;2022-08-01T10:13:39;22.50;81.60
36856;DHT22;22788;51.434;6.786;2022-08-01T10:16:07;22.50;81.70
36856;DHT22;22788;51.434;6.786;2022-08-01T10:18:34;22.60;81.40
36856;DHT22;22788;51.434;6.786;2022-08-01T10:21:02;22.60;80.70
36856;DHT22;22788;51.434;6.786;2022-08-01T10:23:34;22.50;80.80
36856;DHT22;22788;51.434;6.786;2022-08-01T10:26:01;22.50;81.40
36856;DHT22;22788;51.434;6.786;2022-08-01T10:28:30;22.60;81.50
36856;DHT22;22788;51.434;6.786;2022-08-01T10:30:58;22.50;81.50
36856;DHT22;22788;51.434;6.786;2022-08-01T10:33:25;22.50;82.10
36856;DHT22;22788;51.434;6.786;2022-08-01T10:35:51;22.50;81.40
36856;DHT22;22788;51.434;6.786;2022-08-01T10:38:17;22.60;80.70
36856;DHT22;22788;51.434;6.786;2022-08-01T10:40:44;22.70;81.10
36856;DHT22;22788;51.434;6.786;2022-08-01T10:43:11;22.80;80.70
36856;DHT22;22788;51.434;6.786;2022-08-01T10:45:37;22.90;80.60
36856;DHT22;22788;51.434;6.786;2022-08-01T10:48:10;23.00;81.00
36856;DHT22;22788;51.434;6.786;2022-08-01T10:50:41;23.00;80.90
36856;DHT22;22788;51.434;6.786;2022-08-01T10:53:10;22.80;80.00
36856;DHT22;22788;51.434;6.786;2022-08-01T10:55:51;22.80;79.90
36856;DHT22;22788;51.434;6.786;2022-08-01T10:58:25;23.00;79.50
36856;DHT22;22788;51.434;6.786;2022-08-01T12:32:00;23.50;77.60
36856;DHT22;22788;51.434;6.786;2022-08-01T12:34:27;23.50;77.80
36856;DHT22;22788;51.434;6.786;2022-08-01T12:36:54;23.50;78.00
36856;DHT22;22788;51.434;6.786;2022-08-01T12:39:28;23.40;77.90
36856;DHT22;22788;51.434;6.786;2022-08-01T12:41:54;23.40;78.40
36856;DHT22;22788;51.434;6.786;2022-08-01T12:44:20;23.40;78.30
36856;DHT22;22788;51.434;6.786;2022-08-01T12:46:47;23.40;78.50
36856;DHT22;22788;51.434;6.786;2022-08-01T12:49:13;23.40;77.80
36856;DHT22;22788;51.434;6.786;2022-08-01T12:51:39;23.40;78.10
36856;DHT22;22788;51.434;6.786;2022-08-01T12:54:05;23.40;78.20
36856;DHT22;22788;51.434;6.786;2022-08-01T12:56:33;23.40;78.30
36856;DHT22;22788;51.434;6.786;2022-08-01T12:58:59;23.40;78.20
36856;DHT22;22788;51.434;6.786;2022-08-01T13:01:26;23.40;78.10
36856;DHT22;22788;51.434;6.786;2022-08-01T13:04:00;23.40;78.30
36856;DHT22;22788;51.434;6.786;2022-08-01T13:06:29;23.40;78.10
36856;DHT22;22788;51.434;6.786;2022-08-01T13:08:56;23.30;78.20
36856;DHT22;22788;51.434;6.786;2022-08-01T13:11:29;23.40;78.20
36856;DHT22;22788;51.434;6.786;2022-08-01T13:13:57;23.30;78.30
36856;DHT22;22788;51.434;6.786;2022-08-01T13:16:24;23.30;78.40
36856;DHT22;22788;51.434;6.786;2022-08-01T13:18:52;23.30;78.40
36856;DHT22;22788;51.434;6.786;2022-08-01T13:21:20;23.30;78.50
36856;DHT22;22788;51.434;6.786;2022-08-01T13:24:01;23.40;78.30
36856;DHT22;22788;51.434;6.786;2022-08-01T13:26:41;23.40;78.20
36856;DHT22;22788;51.434;6.786;2022-08-01T13:29:10;23.50;77.80
36856;DHT22;22788;51.434;6.786;2022-08-01T13:31:38;23.50;77.70
36856;DHT22;22788;51.434;6.786;2022-08-01T13:34:04;23.50;77.60
36856;DHT22;22788;51.434;6.786;2022-08-01T13:36:31;23.50;77.70
36856;DHT22;22788;51.434;6.786;2022-08-01T13:38:57;23.50;77.60
36856;DHT22;22788;51.434;6.786;2022-08-01T13:41:23;23.40;77.90
36856;DHT22;22788;51.434;6.786;2022-08-01T13:43:50;23.50;77.80
36856;DHT22;22788;51.434;6.786;2022-08-01T13:46:17;23.50;77.60
36856;DHT22;22788;51.434;6.786;2022-08-01T13:48:43;23.40;77.60
36856;DHT22;22788;51.434;6.786;2022-08-01T13:51:10;23.40;77.70
36856;DHT22;22788;51.434;6.786;2022-08-01T13:53:36;23.40;77.90
36856;DHT22;22788;51.434;6.786;2022-08-01T13:56:02;23.40;77.90
36856;DHT22;22788;51.434;6.786;2022-08-01T13:58:28;23.30;78.00
36856;DHT22;22788;51.434;6.786;2022-08-01T14:00:54;23.30;78.20
36856;DHT22;22788;51.434;6.786;2022-08-01T14:03:22;23.20;78.30
36856;DHT22;22788;51.434;6.786;2022-08-01T14:05:49;23.20;78.40
36856;DHT22;22788;51.434;6.786;2022-08-01T14:08:15;23.30;78.50
36856;DHT22;22788;51.434;6.786;2022-08-01T14:10:41;23.20;78.50
36856;DHT22;22788;51.434;6.786;2022-08-01T14:13:07;23.20;78.50
36856;DHT22;22788;51.434;6.786;2022-08-01T14:15:33;23.20;78.50
36856;DHT22;22788;51.434;6.786;2022-08-01T14:17:59;23.20;78.50
36856;DHT22;22788;51.434;6.786;2022-08-01T14:20:27;23.20;78.70
36856;DHT22;22788;51.434;6.786;2022-08-01T14:22:53;23.10;78.50
36856;DHT22;22788;51.434;6.786;2022-08-01T14:25:19;23.20;78.70
36856;DHT22;22788;51.434;6.786;2022-08-01T14:27:45;23.20;78.80
36856;DHT22;22788;51.434;6.786;2022-08-01T14:30:12;23.10;78.90
36856;DHT22;22788;51.434;6.786;2022-08-01T14:32:38;23.10;78.80
36856;DHT22;22788;51.434;6.786;2022-08-01T14:35:05;23.10;78.90
36856;DHT22;22788;51.434;6.786;2022-08-01T14:37:33;23.10;78.90
36856;DHT22;22788;51.434;6.786;2022-08-01T14:40:00;23.10;78.90
36856;DHT22;22788;51.434;6.786;2022-08-01T14:42:26;23.10;78.80
36856;DHT22;22788;51.434;6.786;2022-08-01T14:44:52;23.10;78.80
36856;DHT22;22788;51.434;6.786;2022-08-01T14:47:18;23.10;78.60
36856;DHT22;22788;51.434;6.786;2022-08-01T14:49:44;23.10;78.40
36856;DHT22;22788;51.434;6.786;2022-08-01T14:52:10;23.20;78.40
36856;DHT22;22788;51.434;6.786;2022-08-01T14:54:38;23.20;78.20
36856;DHT22;22788;51.434;6.786;2022-08-01T14:57:04;23.20;78.40
36856;DHT22;22788;51.434;6.786;2022-08-01T14:59:30;23.20;78.20
36856;DHT22;22788;51.434;6.786;2022-08-01T15:01:56;23.30;78.10
36856;DHT22;22788;51.434;6.786;2022-08-01T15:04:22;23.30;78.00
36856;DHT22;22788;51.434;6.786;2022-08-01T15:06:48;23.40;77.90
36856;DHT22;22788;51.434;6.786;2022-08-01T15:09:14;23.40;77.70
36856;DHT22;22788;51.434;6.786;2022-08-01T15:11:42;23.40;77.70
36856;DHT22;22788;51.434;6.786;2022-08-01T15:14:08;23.40;77.70
36856;DHT22;22788;51.434;6.786;2022-08-01T15:16:34;23.40;77.70
36856;DHT22;22788;51.434;6.786;2022-08-01T15:19:00;23.40;77.70
36856;DHT22;22788;51.434;6.786;2022-08-01T15:21:26;23.40;77.70
36856;DHT22;22788;51.434;6.786;2022-08-01T15:23:52;23.40;77.40
36856;DHT22;22788;51.434;6.786;2022-08-01T15:26:18;23.40;77.50
36856;DHT22;22788;51.434;6.786;2022-08-01T15:28:45;23.40;77.10
36856;DHT22;22788;51.434;6.786;2022-08-01T15:31:12;23.50;77.30
36856;DHT22;22788;51.434;6.786;2022-08-01T15:33:38;23.50;77.40
36856;DHT22;22788;51.434;6.786;2022-08-01T15:36:04;23.50;77.30
36856;DHT22;22788;51.434;6.786;2022-08-01T15:38:31;23.40;77.00
36856;DHT22;22788;51.434;6.786;2022-08-01T15:40:57;23.50;76.80
36856;DHT22;22788;51.434;6.786;2022-08-01T15:43:23;23.50;76.90
36856;DHT22;22788;51.434;6.786;2022-08-01T15:45:50;23.50;77.00
36856;DHT22;22788;51.434;6.786;2022-08-01T15:48:16;23.50;77.00
36856;DHT22;22788;51.434;6.786;2022-08-01T15:50:42;23.50;76.90
36856;DHT22;22788;51.434;6.786;2022-08-01T15:53:09;23.50;76.90
36856;DHT22;22788;51.434;6.786;2022-08-01T15:55:35;23.50;76.70
36856;DHT22;22788;51.434;6.786;2022-08-01T15:58:01;23.40;76.10
36856;DHT22;22788;51.434;6.786;2022-08-01T16:00:28;23.40;76.70
36856;DHT22;22788;51.434;6.786;2022-08-01T16:02:55;23.50;76.60
36856;DHT22;22788;51.434;6.786;2022-08-01T16:05:21;23.40;76.80
36856;DHT22;22788;51.434;6.786;2022-08-01T16:07:48;23.60;76.90
36856;DHT22;22788;51.434;6.786;2022-08-01T16:10:14;23.40;76.40
36856;DHT22;22788;51.434;6.786;2022-08-01T16:12:40;23.30;76.70
36856;DHT22;22788;51.434;6.786;2022-08-01T16:15:07;23.30;77.10
36856;DHT22;22788;51.434;6.786;2022-08-01T16:17:33;23.30;77.20
36856;DHT22;22788;51.434;6.786;2022-08-01T16:20:01;23.30;77.20
36856;DHT22;22788;51.434;6.786;2022-08-01T16:22:27;23.30;77.10
36856;DHT22;22788;51.434;6.786;2022-08-01T16:24:53;23.30;77.10
36856;DHT22;22788;51.434;6.786;2022-08-01T16:27:19;23.30;77.10
36856;DHT22;22788;51.434;6.786;2022-08-01T16:29:45;23.30;77.10
36856;DHT22;22788;51.434;6.786;2022-08-01T16:32:11;23.30;76.60
36856;DHT22;22788;51.434;6.786;2022-08-01T16:34:37;23.30;76.90
36856;DHT22;22788;51.434;6.786;2022-08-01T16:37:05;23.40;76.80
36856;DHT22;22788;51.434;6.786;2022-08-01T16:39:31;23.40;76.70
36856;DHT22;22788;51.434;6.786;2022-08-01T16:41:57;23.40;75.60
36856;DHT22;22788;51.434;6.786;2022-08-01T16:44:23;23.40;76.60
36856;DHT22;22788;51.434;6.786;2022-08-01T16:46:49;23.40;76.70
36856;DHT22;22788;51.434;6.786;2022-08-01T16:49:15;23.40;76.70
36856;DHT22;22788;51.434;6.786;2022-08-01T16:51:41;23.30;76.70
36856;DHT22;22788;51.434;6.786;2022-08-01T16:54:09;23.30;76.70
36856;DHT22;22788;51.434;6.786;2022-08-01T16:56:35;23.30;76.80
36856;DHT22;22788;51.434;6.786;2022-08-01T16:59:01;23.30;76.80
36856;DHT22;22788;51.434;6.786;2022-08-01T17:01:27;23.30;76.90
36856;DHT22;22788;51.434;6.786;2022-08-01T17:03:53;23.20;76.90
36856;DHT22;22788;51.434;6.786;2022-08-01T17:06:19;23.20;77.00
36856;DHT22;22788;51.434;6.786;2022-08-01T17:08:45;23.20;77.10
36856;DHT22;22788;51.434;6.786;2022-08-01T17:11:13;23.20;77.20
36856;DHT22;22788;51.434;6.786;2022-08-01T17:13:39;23.20;77.30
36856;DHT22;22788;51.434;6.786;2022-08-01T17:16:06;23.20;77.30
36856;DHT22;22788;51.434;6.786;2022-08-01T17:18:32;23.20;77.40
36856;DHT22;22788;51.434;6.786;2022-08-01T17:20:58;23.10;77.20
36856;DHT22;22788;51.434;6.786;2022-08-01T17:23:24;23.10;77.10
36856;DHT22;22788;51.434;6.786;2022-08-01T17:25:50;23.20;77.20
36856;DHT22;22788;51.434;6.786;2022-08-01T17:28:18;23.20;77.10
36856;DHT22;22788;51.434;6.786;2022-08-01T17:30:44;23.20;76.90
36856;DHT22;22788;51.434;6.786;2022-08-01T17:33:10;23.20;76.70
36856;DHT22;22788;51.434;6.786;2022-08-01T17:35:36;23.10;76.80
36856;DHT22;22788;51.434;6.786;2022-08-01T17:38:02;23.10;76.20
36856;DHT22;22788;51.434;6.786;2022-08-01T17:40:28;23.10;76.10
36856;DHT22;22788;51.434;6.786;2022-08-01T17:42:54;23.10;76.40
36856;DHT22;22788;51.434;6.786;2022-08-01T17:47:48;23.10;75.70
36856;DHT22;22788;51.434;6.786;2022-08-01T17:50:14;22.90;76.00
36856;DHT22;22788;51.434;6.786;2022-08-01T17:52:40;23.10;76.20
36856;DHT22;22788;51.434;6.786;2022-08-01T17:55:07;23.10;76.00
36856;DHT22;22788;51.434;6.786;2022-08-01T17:57:33;23.10;75.90
36856;DHT22;22788;51.434;6.786;2022-08-01T17:59:59;23.10;76.00
36856;DHT22;22788;51.434;6.786;2022-08-01T18:02:27;23.10;76.00
36856;DHT22;22788;51.434;6.786;2022-08-01T18:04:53;23.10;75.80
36856;DHT22;22788;51.434;6.786;2022-08-01T18:07:19;23.10;76.00
36856;DHT22;22788;51.434;6.786;2022-08-01T18:09:45;23.10;75.90
36856;DHT22;22788;51.434;6.786;2022-08-01T18:12:12;23.10;75.80
36856;DHT22;22788;51.434;6.786;2022-08-01T18:14:38;23.00;75.80
36856;DHT22;22788;51.434;6.786;2022-08-01T18:17:04;23.10;75.90
36856;DHT22;22788;51.434;6.786;2022-08-01T18:19:32;23.00;76.00
36856;DHT22;22788;51.434;6.786;2022-08-01T18:21:58;23.00;75.90
36856;DHT22;22788;51.434;6.786;2022-08-01T18:24:24;23.00;75.70
36856;DHT22;22788;51.434;6.786;2022-08-01T18:26:50;23.00;75.70
36856;DHT22;22788;51.434;6.786;2022-08-01T18:29:16;23.00;75.70
36856;DHT22;22788;51.434;6.786;2022-08-01T18:31:43;23.00;75.60
36856;DHT22;22788;51.434;6.786;2022-08-01T18:34:09;22.90;75.40
36856;DHT22;22788;51.434;6.786;2022-08-01T18:36:37;22.90;75.20
36856;DHT22;22788;51.434;6.786;2022-08-01T18:39:05;22.90;75.00
36856;DHT22;22788;51.434;6.786;2022-08-01T18:41:31;22.90;74.20
36856;DHT22;22788;51.434;6.786;2022-08-01T18:43:57;22.80;74.00
36856;DHT22;22788;51.434;6.786;2022-08-01T18:46:24;22.80;74.00
36856;DHT22;22788;51.434;6.786;2022-08-01T18:48:50;22.80;73.90
36856;DHT22;22788;51.434;6.786;2022-08-01T18:51:16;22.80;73.80
36856;DHT22;22788;51.434;6.786;2022-08-01T18:53:43;22.80;73.70
36856;DHT22;22788;51.434;6.786;2022-08-01T18:56:09;22.70;73.50
36856;DHT22;22788;51.434;6.786;2022-08-01T18:58:36;22.70;73.40
36856;DHT22;22788;51.434;6.786;2022-08-01T19:01:02;22.70;73.50
36856;DHT22;22788;51.434;6.786;2022-08-01T19:03:28;22.60;73.40
36856;DHT22;22788;51.434;6.786;2022-08-01T19:05:54;22.60;73.30
36856;DHT22;22788;51.434;6.786;2022-08-01T19:08:20;22.60;73.20
36856;DHT22;22788;51.434;6.786;2022-08-01T19:10:47;22.60;73.10
36856;DHT22;22788;51.434;6.786;2022-08-01T19:13:13;22.50;73.00
36856;DHT22;22788;51.434;6.786;2022-08-01T19:15:39;22.60;73.30
36856;DHT22;22788;51.434;6.786;2022-08-01T19:18:06;22.50;73.40
36856;DHT22;22788;51.434;6.786;2022-08-01T19:20:32;22.50;74.50
36856;DHT22;22788;51.434;6.786;2022-08-01T19:22:58;22.50;75.20
36856;DHT22;22788;51.434;6.786;2022-08-01T19:25:24;22.50;75.60
36856;DHT22;22788;51.434;6.786;2022-08-01T19:27:52;22.50;74.60
36856;DHT22;22788;51.434;6.786;2022-08-01T19:30:20;22.50;75.80
36856;DHT22;22788;51.434;6.786;2022-08-01T19:32:47;22.50;76.20
36856;DHT22;22788;51.434;6.786;2022-08-01T19:35:14;22.50;76.60
36856;DHT22;22788;51.434;6.786;2022-08-01T19:37:41;22.40;76.90
36856;DHT22;22788;51.434;6.786;2022-08-01T19:40:08;22.40;77.10
36856;DHT22;22788;51.434;6.786;2022-08-01T19:42:35;22.50;77.40
36856;DHT22;22788;51.434;6.786;2022-08-01T19:45:06;22.40;77.50
36856;DHT22;22788;51.434;6.786;2022-08-01T19:47:33;22.40;77.30
36856;DHT22;22788;51.434;6.786;2022-08-01T19:49:59;22.40;77.80
36856;DHT22;22788;51.434;6.786;2022-08-01T19:52:26;22.40;78.00
36856;DHT22;22788;51.434;6.786;2022-08-01T19:54:54;22.30;78.00
36856;DHT22;22788;51.434;6.786;2022-08-01T19:57:21;22.30;78.30
36856;DHT22;22788;51.434;6.786;2022-08-01T19:59:49;22.30;78.50
36856;DHT22;22788;51.434;6.786;2022-08-01T20:02:18;22.30;78.70
36856;DHT22;22788;51.434;6.786;2022-08-01T20:04:45;22.30;78.70
36856;DHT22;22788;51.434;6.786;2022-08-01T20:07:12;22.20;78.80
36856;DHT22;22788;51.434;6.786;2022-08-01T20:09:39;22.20;78.90
36856;DHT22;22788;51.434;6.786;2022-08-01T20:12:05;22.20;79.00
36856;DHT22;22788;51.434;6.786;2022-08-01T20:14:32;22.20;79.10
36856;DHT22;22788;51.434;6.786;2022-08-01T20:16:58;22.20;79.20
36856;DHT22;22788;51.434;6.786;2022-08-01T20:19:26;22.20;79.30
36856;DHT22;22788;51.434;6.786;2022-08-01T20:21:55;22.20;79.30
36856;DHT22;22788;51.434;6.786;2022-08-01T20:24:24;22.20;79.40
36856;DHT22;22788;51.434;6.786;2022-08-01T20:26:52;22.10;79.50
36856;DHT22;22788;51.434;6.786;2022-08-01T20:29:20;22.10;79.50
36856;DHT22;22788;51.434;6.786;2022-08-01T20:31:49;22.10;79.60
36856;DHT22;22788;51.434;6.786;2022-08-01T20:34:16;22.00;79.70